createdAt,value
2023-01-02T00:01:32.720Z,31.88
2023-01-02T00:04:00.525Z,25.73
2023-01-02T00:06:27.556Z,21.05
2023-01-02T00:08:54.436Z,21.10
2023-01-02T00:11:21.444Z,15.40
2023-01-02T00:13:48.309Z,17.23
2023-01-02T00:16:15.499Z,17.50
2023-01-02T00:18:43.904Z,16.58
2023-01-02T00:21:10.845Z,17.85
2023-01-02T00:23:41.313Z,20.73
2023-01-02T00:26:09.011Z,20.15
2023-01-02T00:28:37.361Z,23.33
2023-01-02T00:31:13.318Z,28.15
2023-01-02T00:33:40.496Z,40.17
2023-01-02T00:36:09.638Z,65.00
2023-01-02T00:38:38.448Z,66.88
2023-01-02T00:41:05.746Z,72.03
2023-01-02T00:43:32.784Z,62.55
2023-01-02T00:46:00.091Z,64.30
2023-01-02T00:48:27.181Z,58.72
2023-01-02T00:50:53.993Z,47.45
2023-01-02T00:53:23.972Z,48.28
2023-01-02T00:56:03.504Z,38.65
2023-01-02T00:58:30.405Z,33.90
2023-01-02T01:00:57.485Z,32.03
2023-01-02T01:03:28.965Z,23.60
2023-01-02T01:05:55.784Z,21.88
2023-01-02T01:08:22.637Z,18.00
2023-01-02T01:10:49.605Z,18.13
2023-01-02T01:13:16.702Z,19.38
2023-01-02T01:15:46.014Z,23.33
2023-01-02T01:18:13.037Z,15.27
2023-01-02T01:20:40.005Z,17.38
2023-01-02T01:23:06.984Z,14.43
2023-01-02T01:25:33.907Z,16.45
2023-01-02T01:28:00.729Z,14.48
2023-01-02T01:30:28.127Z,11.18
2023-01-02T01:32:55.216Z,11.02
2023-01-02T01:35:22.229Z,13.85
2023-01-02T01:37:49.165Z,16.42
2023-01-02T01:40:16.047Z,13.10
2023-01-02T01:42:42.982Z,25.63
2023-01-02T01:45:14.984Z,24.98
2023-01-02T01:48:12.508Z,18.33
2023-01-02T01:50:39.788Z,16.42
2023-01-02T01:53:16.520Z,14.82
2023-01-02T01:55:51.702Z,11.00
2023-01-02T01:58:26.865Z,11.70
2023-01-02T02:01:21.820Z,13.25
2023-01-02T02:03:50.856Z,13.07
2023-01-02T02:06:19.642Z,13.18
2023-01-02T02:09:00.942Z,13.68
2023-01-02T02:14:00.103Z,22.15
2023-01-02T02:16:50.533Z,15.32
2023-01-02T02:19:29.590Z,21.63
2023-01-02T02:22:28.805Z,19.92
2023-01-02T02:25:01.677Z,17.15
2023-01-02T02:28:17.446Z,8.32
2023-01-02T02:31:02.365Z,24.17
2023-01-02T02:33:48.290Z,68.57
2023-01-02T02:36:32.753Z,78.10
2023-01-02T02:39:27.949Z,74.40
2023-01-02T02:42:10.630Z,62.85
2023-01-02T02:45:05.512Z,64.32
2023-01-02T02:47:52.691Z,36.72
2023-01-02T02:50:35.868Z,40.65
2023-01-02T02:53:16.872Z,52.25
2023-01-02T02:55:48.910Z,53.92
2023-01-02T02:58:19.015Z,59.15
2023-01-02T03:00:45.988Z,52.92
2023-01-02T03:03:19.019Z,52.45
2023-01-02T03:06:08.251Z,49.20
2023-01-02T03:08:47.245Z,35.38
2023-01-02T03:11:15.895Z,25.90
2023-01-02T03:14:07.369Z,16.30
2023-01-02T03:16:39.801Z,11.60
2023-01-02T03:19:14.900Z,17.63
2023-01-02T03:21:57.432Z,12.90
2023-01-02T03:24:26.665Z,15.68
2023-01-02T03:27:03.134Z,17.77
2023-01-02T03:29:39.746Z,15.85
2023-01-02T03:32:13.340Z,12.35
2023-01-02T03:34:43.338Z,19.70
2023-01-02T03:37:15.497Z,16.80
2023-01-02T03:39:51.701Z,13.02
2023-01-02T03:42:30.510Z,8.05
2023-01-02T03:45:16.246Z,7.00
2023-01-02T03:48:08.450Z,9.93
2023-01-02T03:51:02.285Z,9.88
2023-01-02T03:53:35.930Z,14.52
2023-01-02T03:56:16.434Z,12.07
2023-01-02T03:59:03.676Z,10.02
2023-01-02T04:01:40.585Z,9.40
2023-01-02T04:04:15.116Z,7.93
2023-01-02T04:06:48.295Z,5.05
2023-01-02T04:09:24.419Z,7.75
2023-01-02T04:12:00.879Z,9.68
2023-01-02T04:14:33.613Z,13.63
2023-01-02T04:17:04.299Z,19.20
2023-01-02T04:19:52.386Z,20.88
2023-01-02T04:22:30.220Z,9.43
2023-01-02T04:25:13.773Z,9.05
2023-01-02T04:27:53.436Z,10.68
2023-01-02T04:30:20.417Z,10.10
2023-01-02T04:32:48.951Z,10.13
2023-01-02T04:35:21.433Z,15.30
2023-01-02T04:37:48.555Z,12.73
2023-01-02T04:40:25.702Z,18.38
2023-01-02T04:42:53.105Z,25.30
2023-01-02T04:45:20.108Z,17.90
2023-01-02T04:47:50.608Z,20.65
2023-01-02T04:50:17.983Z,22.65
2023-01-02T04:52:45.143Z,33.88
2023-01-02T04:55:12.032Z,24.90
2023-01-02T04:57:39.432Z,12.43
2023-01-02T05:00:08.332Z,16.27
2023-01-02T05:02:36.998Z,7.68
2023-01-02T05:05:06.491Z,12.27
2023-01-02T05:07:34.948Z,12.57
2023-01-02T05:10:04.585Z,14.00
2023-01-02T05:12:37.530Z,15.77
2023-01-02T05:15:17.957Z,27.95
2023-01-02T05:17:44.952Z,19.45
2023-01-02T05:20:13.202Z,20.08
2023-01-02T05:23:00.535Z,28.55
2023-01-02T05:25:31.711Z,33.58
2023-01-02T05:27:58.921Z,76.85
2023-01-02T05:30:25.978Z,53.03
2023-01-02T05:32:53.793Z,35.72
2023-01-02T05:35:22.161Z,30.38
2023-01-02T05:37:50.524Z,29.25
2023-01-02T05:40:17.545Z,22.58
2023-01-02T05:42:44.463Z,30.63
2023-01-02T05:45:11.389Z,41.63
2023-01-02T05:47:38.387Z,29.55
2023-01-02T05:50:06.161Z,40.67
2023-01-02T05:52:33.203Z,38.67
2023-01-02T05:55:01.243Z,49.40
2023-01-02T05:57:28.394Z,18.02
2023-01-02T05:59:55.563Z,22.52
2023-01-02T06:02:22.864Z,32.88
2023-01-02T06:04:49.849Z,55.97
2023-01-02T06:07:16.937Z,72.97
2023-01-02T06:09:44.007Z,58.05
2023-01-02T06:12:10.892Z,47.33
2023-01-02T06:14:37.751Z,28.45
2023-01-02T06:17:04.798Z,32.58
2023-01-02T06:19:31.861Z,37.38
2023-01-02T06:21:58.757Z,38.05
2023-01-02T06:24:25.909Z,52.22
2023-01-02T06:26:52.876Z,33.55
2023-01-02T06:29:19.762Z,33.85
2023-01-02T06:31:51.292Z,31.85
2023-01-02T06:34:18.780Z,33.42
2023-01-02T06:36:45.867Z,29.70
2023-01-02T06:39:12.880Z,33.38
2023-01-02T06:41:39.668Z,37.55
2023-01-02T06:44:06.714Z,32.40
2023-01-02T06:46:33.732Z,31.63
2023-01-02T06:49:00.649Z,34.20
2023-01-02T06:51:27.534Z,70.53
2023-01-02T06:53:54.385Z,59.30
2023-01-02T06:56:21.749Z,48.75
2023-01-02T06:58:48.892Z,41.22
2023-01-02T07:01:22.343Z,39.72
2023-01-02T07:03:49.691Z,29.33
2023-01-02T07:06:22.582Z,34.80
2023-01-02T07:08:50.432Z,42.97
2023-01-02T07:11:23.283Z,67.03
2023-01-02T07:13:53.166Z,68.43
2023-01-02T07:16:21.946Z,46.15
2023-01-02T07:18:49.472Z,33.03
2023-01-02T07:21:18.398Z,33.20
2023-01-02T07:23:45.741Z,27.83
2023-01-02T07:26:13.856Z,23.55
2023-01-02T07:28:41.412Z,31.58
2023-01-02T07:31:13.405Z,33.50
2023-01-02T07:33:41.446Z,30.05
2023-01-02T07:36:12.280Z,15.18
2023-01-02T07:38:39.628Z,16.25
2023-01-02T07:41:18.750Z,15.00
2023-01-02T07:43:46.957Z,16.38
2023-01-02T07:46:19.386Z,18.42
2023-01-02T07:48:46.956Z,14.85
2023-01-02T07:51:26.703Z,16.10
2023-01-02T07:54:06.602Z,19.73
2023-01-02T07:59:03.872Z,25.17
2023-01-02T08:01:30.979Z,19.27
2023-01-02T08:03:58.141Z,23.17
2023-01-02T08:06:25.274Z,34.10
2023-01-02T08:08:52.124Z,32.42
2023-01-02T08:11:21.329Z,36.50
2023-01-02T08:13:48.524Z,30.65
2023-01-02T08:16:21.303Z,31.80
2023-01-02T08:18:51.543Z,44.35
2023-01-02T08:21:18.753Z,39.55
2023-01-02T08:23:45.829Z,37.55
2023-01-02T08:26:12.784Z,56.17
2023-01-02T08:28:41.394Z,37.85
2023-01-02T08:31:11.679Z,38.03
2023-01-02T08:33:38.982Z,45.83
2023-01-02T08:36:06.338Z,36.75
2023-01-02T08:38:33.367Z,27.95
2023-01-02T08:41:00.747Z,27.10
2023-01-02T08:43:28.021Z,48.45
2023-01-02T08:45:55.731Z,35.92
2023-01-02T08:48:22.893Z,29.08
2023-01-02T08:50:50.498Z,31.05
2023-01-02T08:53:18.305Z,117.90
2023-01-02T08:55:45.499Z,340.33
2023-01-02T08:58:12.623Z,30.50
2023-01-02T09:00:39.912Z,342.83
2023-01-02T09:03:07.189Z,209.98
2023-01-02T09:05:34.646Z,34.80
2023-01-02T09:08:03.137Z,106.10
2023-01-02T09:10:30.247Z,32.80
2023-01-02T09:12:59.039Z,147.02
2023-01-02T09:15:29.926Z,57.65
2023-01-02T09:17:56.965Z,32.75
2023-01-02T09:20:24.021Z,26.40
2023-01-02T09:22:51.403Z,20.15
2023-01-02T09:25:23.890Z,18.92
2023-01-02T09:27:51.960Z,25.90
2023-01-02T09:30:19.199Z,22.90
2023-01-02T09:32:46.449Z,25.42
2023-01-02T09:35:13.514Z,22.52
2023-01-02T09:37:40.382Z,19.65
2023-01-02T09:40:08.459Z,20.95
2023-01-02T09:42:36.040Z,20.33
2023-01-02T09:45:08.856Z,19.80
2023-01-02T09:47:40.205Z,29.45
2023-01-02T09:50:18.796Z,21.95
2023-01-02T09:52:54.852Z,31.80
2023-01-02T09:55:33.299Z,31.75
2023-01-02T09:58:38.665Z,31.85
2023-01-02T10:01:12.726Z,29.75
2023-01-02T10:03:49.689Z,25.65
2023-01-02T10:06:24.966Z,26.73
2023-01-02T10:09:11.092Z,36.88
2023-01-02T10:12:08.076Z,37.67
2023-01-02T10:14:58.579Z,44.60
2023-01-02T10:17:29.698Z,105.32
2023-01-02T10:20:02.565Z,31.65
2023-01-02T10:22:34.469Z,33.97
2023-01-02T10:25:22.491Z,33.85
2023-01-02T10:27:55.088Z,31.60
2023-01-02T10:30:25.021Z,22.33
2023-01-02T10:33:10.073Z,28.98
2023-01-02T10:35:53.741Z,34.92
2023-01-02T10:38:21.675Z,29.60
2023-01-02T10:40:51.148Z,24.45
2023-01-02T10:43:19.730Z,31.45
2023-01-02T10:45:53.151Z,20.00
2023-01-02T10:48:27.243Z,17.40
2023-01-02T10:50:57.903Z,20.33
2023-01-02T10:53:37.631Z,25.17
2023-01-02T10:56:17.494Z,21.30
2023-01-02T10:58:50.501Z,21.70
2023-01-02T11:01:22.960Z,27.92
2023-01-02T11:04:16.696Z,21.58
2023-01-02T11:07:45.285Z,19.10
2023-01-02T11:10:46.969Z,13.98
2023-01-02T11:17:24.244Z,13.15
2023-01-02T11:19:54.884Z,10.70
2023-01-02T11:22:32.637Z,10.52
2023-01-02T11:25:02.686Z,16.10
2023-01-02T11:27:42.823Z,15.55
2023-01-02T11:30:24.348Z,20.73
2023-01-02T11:36:11.879Z,11.25
2023-01-02T11:38:44.476Z,12.15
2023-01-02T11:42:09.511Z,6.22
2023-01-02T11:44:42.031Z,11.35
2023-01-02T11:47:44.097Z,12.07
2023-01-02T11:50:43.355Z,11.40
2023-01-02T11:53:14.129Z,6.50
2023-01-02T11:55:51.548Z,7.20
2023-01-02T11:58:37.496Z,4.65
2023-01-02T12:01:53.588Z,8.35
2023-01-02T12:04:23.657Z,3.85
2023-01-02T12:06:50.836Z,6.75
2023-01-02T12:09:40.846Z,7.47
2023-01-02T12:12:45.189Z,4.00
2023-01-02T12:15:30.362Z,3.78
2023-01-02T12:18:36.353Z,4.35
2023-01-02T12:21:25.564Z,2.83
2023-01-02T12:24:11.129Z,1.13
2023-01-02T12:26:57.706Z,2.15
2023-01-02T12:29:50.761Z,3.47
2023-01-02T12:32:52.025Z,3.10
2023-01-02T12:35:43.166Z,2.58
2023-01-02T12:38:19.523Z,2.38
2023-01-02T12:41:10.785Z,1.45
2023-01-02T12:43:50.109Z,1.02
2023-01-02T12:46:25.889Z,2.83
2023-01-02T12:49:04.793Z,3.05
2023-01-02T12:52:07.423Z,5.20
2023-01-02T12:54:44.218Z,30.83
2023-01-02T12:57:46.264Z,9.73
2023-01-02T13:00:47.938Z,9.40
2023-01-02T13:06:43.064Z,11.18
2023-01-02T13:09:09.081Z,5.82
2023-01-02T13:11:46.925Z,3.45
2023-01-02T13:14:20.689Z,13.27
2023-01-02T13:16:55.585Z,9.40
2023-01-02T13:19:40.863Z,15.75
2023-01-02T13:22:21.260Z,12.75
2023-01-02T13:24:50.806Z,12.80
2023-01-02T13:27:18.136Z,43.63
2023-01-02T13:29:46.277Z,21.40
2023-01-02T13:32:15.420Z,70.32
2023-01-02T13:35:42.531Z,33.75
2023-01-02T13:42:22.268Z,20.15
2023-01-02T13:45:21.695Z,13.33
2023-01-02T13:47:57.051Z,15.65
2023-01-02T13:50:34.052Z,24.23
2023-01-02T13:53:07.131Z,21.92
2023-01-02T13:56:07.462Z,13.15
2023-01-02T13:58:39.705Z,26.33
2023-01-02T14:01:23.380Z,24.60
2023-01-02T14:04:08.528Z,38.03
2023-01-02T14:06:42.142Z,34.70
2023-01-02T14:09:13.059Z,25.75
2023-01-02T14:11:56.259Z,24.08
2023-01-02T14:14:30.747Z,29.38
2023-01-02T14:17:10.941Z,26.02
2023-01-02T14:19:43.751Z,28.23
2023-01-02T14:22:14.490Z,27.98
2023-01-02T14:24:49.707Z,27.95
2023-01-02T14:27:18.546Z,36.78
2023-01-02T14:29:53.646Z,32.67
2023-01-02T14:32:36.172Z,29.05
2023-01-02T14:35:07.557Z,24.48
2023-01-02T14:37:41.679Z,25.52
2023-01-02T14:40:33.642Z,34.60
2023-01-02T14:43:34.369Z,50.67
2023-01-02T14:46:04.268Z,69.90
2023-01-02T14:49:25.708Z,79.00
2023-01-02T14:52:05.355Z,77.75
2023-01-02T14:55:09.383Z,50.72
2023-01-02T14:57:45.511Z,48.80
2023-01-02T15:00:25.048Z,30.70
2023-01-02T15:03:23.180Z,37.33
2023-01-02T15:05:57.260Z,38.17
2023-01-02T15:08:44.773Z,96.13
2023-01-02T15:11:48.956Z,78.38
2023-01-02T15:14:23.657Z,47.70
2023-01-02T15:16:59.253Z,57.72
2023-01-02T15:19:29.462Z,64.50
2023-01-02T15:21:56.757Z,63.97
2023-01-02T15:24:26.998Z,82.95
2023-01-02T15:26:54.504Z,72.10
2023-01-02T15:29:29.019Z,65.07
2023-01-02T15:31:59.024Z,126.53
2023-01-02T15:34:31.126Z,136.10
2023-01-02T15:37:07.758Z,131.80
2023-01-02T15:39:39.358Z,125.70
2023-01-02T15:42:27.188Z,95.00
2023-01-02T15:45:13.938Z,342.55
2023-01-02T15:47:50.430Z,228.20
2023-01-02T15:50:28.440Z,176.40
2023-01-02T15:53:08.535Z,161.82
2023-01-02T15:55:40.912Z,171.43
2023-01-02T15:58:16.546Z,158.40
2023-01-02T16:00:45.135Z,158.75
2023-01-02T16:04:00.226Z,119.68
2023-01-02T16:06:31.532Z,129.60
2023-01-02T16:09:00.773Z,141.23
2023-01-02T16:11:27.974Z,124.97
2023-01-02T16:14:20.040Z,163.93
2023-01-02T16:16:51.732Z,176.38
2023-01-02T16:19:32.188Z,164.15
2023-01-02T16:22:04.677Z,203.55
2023-01-02T16:24:35.416Z,141.60
2023-01-02T16:27:03.837Z,137.05
2023-01-02T16:29:30.841Z,141.90
2023-01-02T16:32:02.479Z,178.75
2023-01-02T16:34:36.106Z,178.85
2023-01-02T16:37:37.040Z,197.75
2023-01-02T16:41:01.692Z,168.40
2023-01-02T16:44:27.655Z,209.18
2023-01-02T16:46:56.842Z,201.52
2023-01-02T16:49:23.932Z,203.60
2023-01-02T16:51:54.260Z,115.50
2023-01-02T16:54:22.364Z,95.80
2023-01-02T16:57:07.161Z,146.15
2023-01-02T16:59:37.776Z,106.75
2023-01-02T17:02:04.943Z,114.93
2023-01-02T17:04:32.221Z,107.82
2023-01-02T17:06:59.497Z,88.15
2023-01-02T17:09:27.209Z,108.57
2023-01-02T17:12:00.817Z,87.15
2023-01-02T17:14:34.296Z,68.50
2023-01-02T17:17:02.117Z,65.55
2023-01-02T17:19:29.987Z,80.68
2023-01-02T17:21:57.266Z,91.78
2023-01-02T17:24:25.375Z,92.63
2023-01-02T17:26:52.620Z,87.22
2023-01-02T17:29:19.544Z,127.47
2023-01-02T17:31:46.802Z,177.00
2023-01-02T17:34:13.866Z,205.30
2023-01-02T17:36:42.835Z,306.25
2023-01-02T17:39:35.070Z,178.65
2023-01-02T17:42:02.390Z,168.60
2023-01-02T17:44:34.348Z,79.22
2023-01-02T17:47:30.923Z,97.07
2023-01-02T17:49:49.383Z,160.10
2023-01-02T17:52:50.944Z,93.65
2023-01-02T17:55:21.267Z,78.45
2023-01-02T17:57:49.149Z,49.17
2023-01-02T18:00:18.333Z,68.47
2023-01-02T18:02:49.516Z,86.05
2023-01-02T18:05:16.622Z,107.43
2023-01-02T18:07:43.779Z,86.05
2023-01-02T18:10:13.555Z,88.85
2023-01-02T18:12:44.785Z,73.60
2023-01-02T18:15:15.199Z,60.10
2023-01-02T18:17:43.033Z,53.13
2023-01-02T18:20:32.646Z,55.90
2023-01-02T18:23:00.449Z,64.03
2023-01-02T18:25:30.200Z,59.75
2023-01-02T18:28:18.041Z,49.38
2023-01-02T18:30:45.329Z,52.83
2023-01-02T18:33:18.753Z,89.22
2023-01-02T18:35:59.046Z,97.10
2023-01-02T18:38:31.238Z,104.63
2023-01-02T18:40:59.073Z,120.70
2023-01-02T18:43:25.803Z,119.85
2023-01-02T18:45:57.604Z,124.82
2023-01-02T18:48:25.411Z,210.43
2023-01-02T18:51:01.027Z,194.95
2023-01-02T18:53:39.452Z,180.07
2023-01-02T18:56:28.295Z,131.68
2023-01-02T18:59:31.342Z,122.18
2023-01-02T19:02:03.921Z,116.45
2023-01-02T19:04:38.203Z,118.30
2023-01-02T19:07:28.524Z,112.15
2023-01-02T19:10:07.848Z,105.72
2023-01-02T19:13:07.212Z,89.40
2023-01-02T19:15:36.983Z,83.28
2023-01-02T19:18:41.481Z,78.32
2023-01-02T19:21:21.299Z,86.97
2023-01-02T19:24:18.286Z,55.45
2023-01-02T19:26:49.690Z,42.45
2023-01-02T19:29:48.932Z,38.10
2023-01-02T19:32:43.879Z,41.83
2023-01-02T19:35:35.135Z,33.13
2023-01-02T19:38:39.229Z,35.58
2023-01-02T19:41:12.505Z,36.33
2023-01-02T19:44:46.492Z,44.53
2023-01-02T19:47:40.676Z,39.92
2023-01-02T19:50:37.719Z,39.38
2023-01-02T19:53:20.736Z,36.78
2023-01-02T19:55:48.861Z,44.35
2023-01-02T20:01:51.253Z,37.25
2023-01-02T20:04:19.532Z,36.97
2023-01-02T20:07:13.563Z,41.55
2023-01-02T20:09:45.059Z,42.55
2023-01-02T20:13:02.301Z,48.83
2023-01-02T20:15:39.987Z,49.35
2023-01-02T20:18:09.018Z,45.30
2023-01-02T20:20:36.796Z,50.45
2023-01-02T20:23:14.890Z,46.85
2023-01-02T20:25:50.467Z,50.42
2023-01-02T20:28:45.943Z,234.32
2023-01-02T20:31:16.068Z,119.32
2023-01-02T20:33:52.649Z,52.10
2023-01-02T20:36:29.693Z,35.10
2023-01-02T20:38:56.991Z,31.27
2023-01-02T20:41:26.073Z,37.45
2023-01-02T20:43:56.184Z,36.35
2023-01-02T20:46:23.785Z,48.17
2023-01-02T20:49:01.551Z,49.72
2023-01-02T20:51:39.029Z,51.47
2023-01-02T20:54:22.714Z,55.15
2023-01-02T20:56:50.924Z,51.58
2023-01-02T20:59:18.338Z,69.88
2023-01-02T21:05:31.323Z,58.33
2023-01-02T21:07:58.772Z,44.95
2023-01-02T21:10:29.249Z,38.90
2023-01-02T21:13:08.424Z,40.55
2023-01-02T21:15:42.677Z,44.25
2023-01-02T21:18:10.477Z,48.58
2023-01-02T21:20:42.575Z,45.85
2023-01-02T21:23:12.936Z,55.08
2023-01-02T21:25:40.079Z,52.92
2023-01-02T21:28:07.664Z,49.58
2023-01-02T21:30:35.162Z,56.95
2023-01-02T21:33:02.349Z,49.80
2023-01-02T21:35:30.366Z,54.92
2023-01-02T21:37:57.452Z,56.33
2023-01-02T21:40:24.619Z,47.72
2023-01-02T21:42:51.891Z,39.85
2023-01-02T21:45:19.057Z,35.25
2023-01-02T21:47:47.479Z,42.08
2023-01-02T21:50:15.286Z,46.08
2023-01-02T21:52:42.261Z,54.00
2023-01-02T21:55:09.559Z,55.10
2023-01-02T21:58:11.795Z,46.85
2023-01-02T22:00:29.086Z,43.13
2023-01-02T22:02:56.711Z,33.42
2023-01-02T22:05:24.049Z,31.83
2023-01-02T22:07:51.111Z,30.95
2023-01-02T22:10:18.245Z,42.92
2023-01-02T22:12:45.360Z,48.28
2023-01-02T22:15:13.138Z,45.13
2023-01-02T22:17:40.306Z,35.20
2023-01-02T22:20:07.879Z,34.22
2023-01-02T22:22:35.040Z,39.42
2023-01-02T22:25:02.478Z,37.92
2023-01-02T22:27:30.187Z,42.83
2023-01-02T22:32:47.590Z,37.77
2023-01-02T22:35:14.566Z,38.05
2023-01-02T22:37:41.658Z,39.95
2023-01-02T22:40:09.097Z,26.42
2023-01-02T22:43:10.437Z,20.25
2023-01-02T22:45:49.009Z,18.48
2023-01-02T22:48:38.290Z,18.52
2023-01-02T22:51:11.972Z,16.58
2023-01-02T22:53:40.088Z,20.83
2023-01-02T22:56:13.358Z,20.77
2023-01-02T22:58:40.670Z,21.80
2023-01-02T23:01:20.662Z,31.52
2023-01-02T23:03:49.038Z,34.30
2023-01-02T23:06:21.866Z,25.05
2023-01-02T23:08:52.697Z,30.60
2023-01-02T23:11:22.067Z,31.73
2023-01-02T23:13:54.715Z,25.30
2023-01-02T23:16:42.447Z,25.23
2023-01-02T23:19:19.505Z,25.20
2023-01-02T23:21:47.860Z,24.23
2023-01-02T23:24:19.871Z,28.85
2023-01-02T23:26:49.813Z,26.98
2023-01-02T23:29:17.485Z,25.52
2023-01-02T23:31:47.253Z,26.45
2023-01-02T23:34:19.015Z,24.10
2023-01-02T23:39:18.723Z,25.67
2023-01-02T23:41:46.756Z,21.13
2023-01-02T23:44:14.874Z,24.55
2023-01-02T23:46:45.365Z,26.73
2023-01-02T23:49:19.125Z,28.15
2023-01-02T23:51:46.407Z,18.10
2023-01-02T23:54:16.371Z,21.42
2023-01-02T23:56:47.111Z,22.08
2023-01-02T23:59:18.591Z,23.92
